Time;durP1;ratioP1;P1;durP2;ratioP2;P2;SDS_P1;SDS_P2;PMS_P1;PMS_P2;Temp;Humidity;BMP_temperature;BMP_pressure;BME280_temperature;BME280_humidity;BME280_pressure;Samples;Min_cycle;Max_cycle;Signal;HPM_P1;HPM_P2
2022/06/08 00:02:23;;;;;;;6.10;4.05;;;;;;;21.32;65.56;99199.88;4430129;32;33763;-58
2022/06/08 00:04:51;;;;;;;5.95;3.37;;;;;;;21.50;64.84;99203.28;4434050;32;34282;-59
2022/06/08 00:07:18;;;;;;;7.53;3.50;;;;;;;21.28;65.00;99205.22;4444674;32;33545;-58
2022/06/08 00:09:45;;;;;;;5.12;3.17;;;;;;;21.51;64.54;99205.03;4452268;32;34331;-58
2022/06/08 00:12:13;;;;;;;5.40;2.95;;;;;;;21.49;64.31;99207.69;4450497;32;33925;-59
2022/06/08 00:14:41;;;;;;;5.20;3.22;;;;;;;21.32;64.85;99199.88;4449559;32;33904;-58
2022/06/08 00:17:08;;;;;;;6.87;3.50;;;;;;;21.35;64.97;99199.00;4448719;32;34508;-57
2022/06/08 00:19:36;;;;;;;6.47;3.10;;;;;;;21.38;64.61;99199.88;4435840;32;32846;-58
2022/06/08 00:22:04;;;;;;;4.85;3.40;;;;;;;21.51;64.14;99205.03;4453899;32;34683;-58
2022/06/08 00:24:32;;;;;;;4.82;3.05;;;;;;;21.09;65.74;99201.84;4451880;32;33871;-58
2022/06/08 00:27:00;;;;;;;4.97;3.40;;;;;;;21.24;65.16;99191.19;4453546;32;33574;-58
2022/06/08 00:29:28;;;;;;;7.30;3.22;;;;;;;21.17;66.34;99190.38;4447008;32;33297;-58
2022/06/08 00:31:55;;;;;;;9.02;4.10;;;;;;;21.25;66.58;99187.69;4447290;32;32166;-58
2022/06/08 00:34:24;;;;;;;5.95;3.42;;;;;;;20.60;69.42;99188.13;4446921;32;34609;-58
2022/06/08 00:36:52;;;;;;;4.97;3.22;;;;;;;21.09;67.08;99193.94;4445287;32;33902;-58
2022/06/08 00:39:19;;;;;;;6.57;3.70;;;;;;;21.08;67.73;99189.56;4449134;32;33704;-58
2022/06/08 00:41:53;;;;;;;5.53;3.12;;;;;;;20.99;67.97;99199.25;4446097;32;34002;-59
2022/06/08 00:44:35;;;;;;;5.12;3.50;;;;;;;21.07;67.13;99193.06;4420340;32;33462;-58
2022/06/08 00:47:04;;;;;;;5.47;3.95;;;;;;;20.85;68.03;99187.97;4436898;32;33544;-58
2022/06/08 00:49:42;;;;;;;5.78;3.87;;;;;;;21.14;67.73;99192.16;4445017;32;33331;-58
2022/06/08 00:52:12;;;;;;;4.93;3.65;;;;;;;21.10;67.12;99196.56;4433771;32;33695;-58
2022/06/08 00:54:42;;;;;;;5.32;4.05;;;;;;;19.80;72.29;99235.72;4448884;32;34016;-58
2022/06/08 00:57:14;;;;;;;7.43;3.70;;;;;;;19.40;74.98;99309.25;4451305;32;33588;-58
2022/06/08 00:59:47;;;;;;;5.80;3.40;;;;;;;19.03;76.27;99319.69;4431653;32;33387;-58
2022/06/08 01:02:16;;;;;;;5.78;3.50;;;;;;;18.79;77.54;99303.81;4434829;32;35924;-58
2022/06/08 01:04:45;;;;;;;8.02;3.62;;;;;;;19.42;75.21;99270.72;4449911;32;34479;-58
2022/06/08 01:07:17;;;;;;;5.72;3.17;;;;;;;19.58;74.24;99258.47;4446836;32;33961;-58
2022/06/08 01:09:45;;;;;;;5.72;3.47;;;;;;;19.21;75.79;99257.59;4444147;32;34207;-58
2022/06/08 01:12:17;;;;;;;5.70;3.08;;;;;;;18.88;76.86;99256.66;4452979;32;33852;-58
2022/06/08 01:14:45;;;;;;;7.10;3.12;;;;;;;19.48;74.63;99263.75;4456705;32;32808;-58
2022/06/08 01:17:18;;;;;;;5.57;3.15;;;;;;;20.44;71.03;99254.81;4423515;32;32844;-58
2022/06/08 01:19:48;;;;;;;5.05;3.15;;;;;;;19.69;74.09;99253.22;4451543;32;33493;-59
2022/06/08 01:22:18;;;;;;;4.82;3.05;;;;;;;19.20;76.39;99247.94;4447907;32;33609;-59
2022/06/08 01:24:49;;;;;;;4.47;3.42;;;;;;;18.98;77.61;99252.31;4451207;32;33677;-57
2022/06/08 01:27:36;;;;;;;9.07;3.60;;;;;;;18.67;79.99;99246.94;4427653;32;33808;-58
2022/06/08 01:30:27;;;;;;;5.87;3.30;;;;;;;20.07;73.20;99254.94;4452718;32;33147;-58
2022/06/08 01:33:28;;;;;;;6.10;3.08;;;;;;;20.07;73.23;99260.22;4435134;32;33939;-58
2022/06/08 01:36:11;;;;;;;5.22;3.20;;;;;;;20.47;71.72;99249.53;4448045;32;33990;-59
2022/06/08 01:39:03;;;;;;;5.78;3.47;;;;;;;20.34;72.19;99230.31;4425569;32;34000;-58
2022/06/08 01:41:55;;;;;;;6.07;2.92;;;;;;;19.38;76.69;99236.59;4442308;32;33224;-59
2022/06/08 01:44:42;;;;;;;5.82;3.20;;;;;;;20.12;74.46;99229.50;4446959;32;33799;-59
2022/06/08 01:47:19;;;;;;;5.40;3.00;;;;;;;20.08;74.36;99224.28;4448109;32;33663;-59
2022/06/08 01:50:02;;;;;;;6.70;3.35;;;;;;;19.88;75.56;99216.44;4425237;32;33874;-58
2022/06/08 01:53:01;;;;;;;4.50;3.15;;;;;;;19.91;75.28;99208.53;4433903;32;33532;-58
2022/06/08 01:55:35;;;;;;;8.10;3.37;;;;;;;20.11;73.85;99201.47;4425808;32;33409;-58
2022/06/08 01:58:24;;;;;;;5.57;3.15;;;;;;;19.56;75.99;99210.31;4447950;32;33940;-58
2022/06/08 02:01:02;;;;;;;5.20;3.67;;;;;;;19.19;77.83;99225.22;4446518;32;34534;-59
2022/06/08 02:03:40;;;;;;;7.55;4.00;;;;;;;18.61;82.77;99229.44;4469846;27;32996;-82
2022/06/08 02:06:19;;;;;;;6.07;3.67;;;;;;;18.67;83.48;99242.56;4452552;32;33541;-82
2022/06/08 02:08:51;;;;;;;7.55;3.65;;;;;;;19.31;79.70;99240.97;4457402;32;34549;-82
2022/06/08 02:11:42;;;;;;;6.20;3.90;;;;;;;20.14;75.38;99234.75;4466405;32;34124;-82
2022/06/08 02:14:14;;;;;;;6.45;3.95;;;;;;;19.80;76.72;99251.50;4454904;32;33482;-82
2022/06/08 02:16:51;;;;;;;8.50;4.20;;;;;;;18.51;84.47;99260.91;4452643;32;33604;-82
2022/06/08 02:19:31;;;;;;;7.70;4.03;;;;;;;18.28;87.91;99265.16;4453545;32;33959;-82
2022/06/08 02:22:09;;;;;;;7.40;4.50;;;;;;;18.38;86.95;99267.81;4465917;32;34026;-82
2022/06/08 02:24:40;;;;;;;8.48;4.05;;;;;;;18.27;87.44;99268.66;4435919;32;32820;-82
2022/06/08 02:27:14;;;;;;;7.97;4.28;;;;;;;18.23;87.49;99266.88;4451673;32;33330;-82
2022/06/08 02:29:49;;;;;;;7.10;4.20;;;;;;;18.61;84.17;99263.53;4454482;32;33574;-82
2022/06/08 02:35:24;;;;;;;7.65;4.25;;;;;;;18.28;86.75;99259.91;4455195;32;33297;-82
2022/06/08 02:37:55;;;;;;;8.98;4.50;;;;;;;18.02;89.92;99251.00;4439316;32;32035;-83
2022/06/08 02:40:32;;;;;;;7.22;5.22;;;;;;;17.73;91.51;99259.56;4461521;32;34647;-84
2022/06/08 02:43:07;;;;;;;7.97;5.25;;;;;;;17.45;95.19;99264.56;4446098;32;34659;-83
2022/06/08 02:45:42;;;;;;;11.97;5.63;;;;;;;18.02;90.61;99266.75;4452977;32;33482;-85
2022/06/08 02:48:13;;;;;;;10.13;5.40;;;;;;;18.17;91.28;99265.97;4452205;32;33728;-82
2022/06/08 02:50:54;;;;;;;8.73;5.00;;;;;;;17.86;92.11;99264.03;4467123;32;34646;-82
2022/06/08 02:53:23;;;;;;;7.03;4.82;;;;;;;18.61;88.12;99247.81;4451183;32;32129;-83
2022/06/08 02:56:30;;;;;;;9.57;5.10;;;;;;;18.99;83.97;99227.81;4467653;32;33123;-84
2022/06/08 02:59:18;;;;;;;7.50;4.55;;;;;;;18.56;86.43;99199.72;4464439;32;34226;-82
2022/06/08 03:01:53;;;;;;;8.98;4.87;;;;;;;18.24;88.47;99203.09;4465185;32;34508;-83
2022/06/08 03:04:28;;;;;;;6.75;4.68;;;;;;;18.43;86.98;99213.66;4445208;32;34671;-83
2022/06/08 03:07:05;;;;;;;8.15;4.93;;;;;;;18.42;86.29;99230.25;4460233;32;34346;-83
2022/06/08 03:09:35;;;;;;;8.15;5.00;;;;;;;18.37;87.26;99237.22;4452060;32;34513;-83
2022/06/08 03:12:12;;;;;;;8.63;4.78;;;;;;;18.67;85.32;99234.69;4449780;32;34670;-84
2022/06/08 03:14:42;;;;;;;8.13;4.90;;;;;;;18.79;83.75;99246.97;4453929;32;34023;-84
2022/06/08 03:17:11;;;;;;;7.55;4.72;;;;;;;18.55;85.14;99241.66;4465701;32;33636;-84
2022/06/08 03:19:39;;;;;;;7.75;4.70;;;;;;;18.88;83.64;99240.91;4450303;32;34414;-84
2022/06/08 03:22:07;;;;;;;8.23;4.72;;;;;;;19.20;81.23;99245.31;4450976;32;33974;-85
2022/06/08 03:24:35;;;;;;;8.32;4.95;;;;;;;19.09;81.33;99255.84;4429205;32;33841;-84
2022/06/08 03:27:08;;;;;;;9.07;4.50;;;;;;;18.98;81.84;99252.31;4441448;32;32099;-84
2022/06/08 03:29:37;;;;;;;8.50;4.65;;;;;;;18.90;82.68;99259.28;4462795;32;33957;-83
2022/06/08 03:32:05;;;;;;;6.57;4.43;;;;;;;18.98;81.84;99263.69;4464908;32;34378;-84
2022/06/08 03:34:33;;;;;;;8.40;4.05;;;;;;;19.14;81.37;99263.69;4453352;32;33818;-83
2022/06/08 03:37:02;;;;;;;6.40;4.10;;;;;;;19.18;80.76;99265.44;4468206;32;33325;-84
2022/06/08 03:39:30;;;;;;;8.23;4.18;;;;;;;19.27;80.53;99261.97;4466877;32;33997;-84
2022/06/08 03:42:00;;;;;;;7.35;4.30;;;;;;;19.29;80.57;99258.47;4448629;32;34529;-84
2022/06/08 03:44:27;;;;;;;9.48;4.30;;;;;;;18.31;85.09;99273.91;4470280;32;34264;-84
2022/06/08 03:47:07;;;;;;;7.62;4.80;;;;;;;18.49;85.27;99268.75;4443548;32;32522;-84
2022/06/08 03:49:35;;;;;;;8.10;4.60;;;;;;;18.90;83.06;99254.03;4455705;32;33193;-84
2022/06/08 03:52:06;;;;;;;7.12;4.47;;;;;;;18.97;81.89;99253.19;4453372;32;33907;-84
2022/06/08 03:54:37;;;;;;;9.05;4.70;;;;;;;18.20;86.37;99250.25;4452197;32;35028;-84
2022/06/08 03:57:07;;;;;;;9.40;4.90;;;;;;;18.86;82.43;99240.03;4439562;32;32403;-84
2022/06/08 03:59:40;;;;;;;6.85;4.45;;;;;;;18.96;81.76;99241.81;4453229;32;34066;-84
2022/06/08 04:02:10;;;;;;;8.35;4.87;;;;;;;18.44;85.27;99239.00;4466123;32;32565;-84
2022/06/08 04:04:39;;;;;;;7.53;4.50;;;;;;;18.40;85.45;99239.84;4453895;32;34029;-84
2022/06/08 04:07:07;;;;;;;8.55;5.37;;;;;;;18.59;85.26;99243.44;4468579;32;35534;-83
2022/06/08 04:09:37;;;;;;;8.98;5.25;;;;;;;18.56;85.81;99239.06;4454001;32;33786;-84
2022/06/08 04:12:05;;;;;;;9.38;5.12;;;;;;;18.86;83.51;99243.53;4453525;32;34568;-84
2022/06/08 04:14:33;;;;;;;7.15;4.93;;;;;;;18.85;83.91;99252.28;4468302;32;33806;-84
2022/06/08 04:17:02;;;;;;;7.00;4.50;;;;;;;19.19;81.73;99257.59;4461619;32;32066;-85
2022/06/08 04:19:30;;;;;;;8.60;4.68;;;;;;;19.74;79.11;99264.66;4467051;32;34336;-84
2022/06/08 04:21:58;;;;;;;6.75;5.15;;;;;;;19.60;78.67;99268.97;4468389;32;34477;-84
2022/06/08 04:24:26;;;;;;;8.32;5.05;;;;;;;18.63;85.41;99267.03;4468142;32;33611;-84
2022/06/08 04:26:56;;;;;;;7.57;5.40;;;;;;;18.25;87.77;99265.16;4467858;32;33826;-83
2022/06/08 04:29:24;;;;;;;8.50;5.05;;;;;;;18.95;84.46;99253.19;4468628;32;33666;-84
2022/06/08 04:31:51;;;;;;;6.97;4.78;;;;;;;19.51;81.27;99258.47;4440997;32;32399;-84
2022/06/08 04:34:19;;;;;;;7.30;5.00;;;;;;;20.08;78.77;99267.19;4454415;32;33716;-84
2022/06/08 04:36:47;;;;;;;7.03;4.97;;;;;;;20.11;78.56;99269.84;4451285;32;33753;-84
2022/06/08 04:39:16;;;;;;;12.35;5.03;;;;;;;19.61;81.47;99270.75;4469489;32;33868;-84
2022/06/08 04:41:44;;;;;;;9.07;5.50;;;;;;;20.01;79.37;99260.19;4468944;32;33901;-84
2022/06/08 04:44:12;;;;;;;7.90;5.37;;;;;;;20.08;78.42;99261.94;4453348;32;33361;-84
2022/06/08 04:46:41;;;;;;;8.55;5.12;;;;;;;18.86;85.43;99253.16;4453357;32;34004;-84
2022/06/08 04:49:11;;;;;;;7.72;5.20;;;;;;;19.13;85.96;99251.47;4469465;32;33824;-83
2022/06/08 04:51:39;;;;;;;5.75;4.32;;;;;;;19.98;80.70;99255.84;4468487;32;34147;-84
2022/06/08 04:54:07;;;;;;;8.18;4.60;;;;;;;20.35;78.36;99244.34;4453187;32;34176;-84
2022/06/08 04:56:36;;;;;;;6.62;4.62;;;;;;;19.53;82.25;99246.22;4467389;32;33660;-84
2022/06/08 04:59:04;;;;;;;6.60;4.80;;;;;;;20.22;79.56;99252.28;4467790;32;32840;-84
2022/06/08 05:01:31;;;;;;;9.95;4.95;;;;;;;19.82;79.50;99244.47;4462695;32;33910;-84
2022/06/08 05:03:59;;;;;;;6.32;4.32;;;;;;;20.21;78.75;99247.88;4451314;32;34594;-84
2022/06/08 05:06:27;;;;;;;6.47;4.75;;;;;;;20.14;79.50;99245.28;4452240;32;32951;-84
2022/06/08 05:08:55;;;;;;;7.05;4.60;;;;;;;19.80;79.62;99248.88;4469955;32;33807;-84
2022/06/08 05:11:23;;;;;;;7.68;4.62;;;;;;;19.50;82.84;99254.13;4467799;32;37280;-83
2022/06/08 05:13:52;;;;;;;7.57;4.18;;;;;;;19.87;80.87;99252.34;4465740;32;33824;-84
2022/06/08 05:16:19;;;;;;;7.18;4.60;;;;;;;20.41;77.93;99254.81;4449063;32;33727;-85
2022/06/08 05:18:48;;;;;;;7.20;4.53;;;;;;;20.74;76.53;99247.69;4453864;32;34545;-84
2022/06/08 05:21:15;;;;;;;8.10;4.20;;;;;;;19.92;80.08;99260.25;4437162;32;32125;-83
2022/06/08 05:23:43;;;;;;;5.22;3.70;;;;;;;20.83;75.42;99258.19;4454796;32;33606;-83
2022/06/08 05:26:12;;;;;;;6.03;3.75;;;;;;;20.80;76.18;99264.34;4465099;32;32942;-83
2022/06/08 05:28:41;;;;;;;5.90;4.37;;;;;;;21.11;75.21;99268.53;4451140;32;33907;-84
2022/06/08 05:31:10;;;;;;;7.65;4.30;;;;;;;19.03;84.37;99269.81;4468404;32;33839;-85
2022/06/08 05:33:39;;;;;;;6.50;4.15;;;;;;;19.47;81.65;99278.63;4455015;32;34490;-87
2022/06/08 05:36:07;;;;;;;6.47;4.10;;;;;;;20.36;78.27;99282.94;4468330;32;34187;-86
2022/06/08 05:38:35;;;;;;;6.70;4.05;;;;;;;20.00;78.93;99282.13;4440099;32;32778;-86
2022/06/08 05:41:03;;;;;;;6.25;4.50;;;;;;;20.62;76.22;99274.94;4451893;32;33063;-86
2022/06/08 05:43:33;;;;;;;5.93;3.50;;;;;;;19.44;83.42;99279.50;4452633;32;34594;-86
2022/06/08 05:46:01;;;;;;;6.85;4.28;;;;;;;19.68;81.95;99274.25;4467418;32;34458;-84
2022/06/08 05:48:29;;;;;;;6.75;4.35;;;;;;;19.82;80.99;99281.28;4470019;32;34597;-84
2022/06/08 05:50:59;;;;;;;6.45;4.53;;;;;;;20.39;79.19;99275.00;4469316;32;33807;-83
2022/06/08 05:53:26;;;;;;;7.15;4.72;;;;;;;20.34;78.98;99276.75;4442670;32;33669;-83
2022/06/08 05:55:54;;;;;;;5.55;4.12;;;;;;;20.38;78.35;99291.69;4468916;32;34228;-84
2022/06/08 05:58:23;;;;;;;5.80;4.32;;;;;;;20.61;77.32;99297.75;4468166;32;33960;-84
2022/06/08 06:00:51;;;;;;;8.85;4.65;;;;;;;20.01;78.75;99307.53;4455309;32;34267;-84
2022/06/08 06:03:19;;;;;;;8.02;5.12;;;;;;;19.50;83.16;99311.91;4468741;32;33441;-84
2022/06/08 06:05:49;;;;;;;6.57;4.87;;;;;;;20.52;78.08;99316.19;4469749;32;34181;-84
2022/06/08 06:08:17;;;;;;;7.05;5.22;;;;;;;19.66;82.05;99316.28;4453308;32;34635;-84
2022/06/08 06:10:47;;;;;;;7.65;5.32;;;;;;;19.40;82.73;99308.37;4466616;32;33874;-84
2022/06/08 06:13:15;;;;;;;7.43;5.53;;;;;;;19.17;84.08;99305.72;4465134;32;33979;-84
2022/06/08 06:15:43;;;;;;;7.25;5.30;;;;;;;19.89;81.33;99307.53;4447840;32;33964;-84
2022/06/08 06:18:16;;;;;;;7.22;4.90;;;;;;;20.23;80.04;99305.75;4451285;32;33881;-84
2022/06/08 06:20:49;;;;;;;7.00;5.05;;;;;;;19.41;83.00;99308.41;4450451;32;33429;-84
2022/06/08 06:23:17;;;;;;;7.90;5.25;;;;;;;20.02;80.36;99293.50;4449179;32;34579;-84
2022/06/08 06:25:45;;;;;;;7.72;5.60;;;;;;;20.41;78.47;99296.91;4467180;32;33431;-84
2022/06/08 06:28:18;;;;;;;7.62;4.90;;;;;;;19.56;81.29;99301.38;4463266;32;33858;-85
2022/06/08 06:30:47;;;;;;;9.20;5.07;;;;;;;20.70;77.48;99294.22;4464042;32;32625;-84
2022/06/08 06:33:16;;;;;;;6.97;5.10;;;;;;;20.06;80.92;99295.25;4466585;32;34128;-84
2022/06/08 06:35:45;;;;;;;8.75;5.50;;;;;;;19.47;83.06;99304.00;4461756;32;34093;-85
2022/06/08 06:38:13;;;;;;;7.65;5.07;;;;;;;19.62;83.05;99299.66;4466440;32;33569;-83
2022/06/08 06:40:41;;;;;;;7.57;5.15;;;;;;;19.74;82.86;99297.91;4466756;32;34600;-85
2022/06/08 06:43:10;;;;;;;7.20;4.70;;;;;;;20.21;80.84;99289.09;4447375;32;33709;-84
2022/06/08 06:45:42;;;;;;;6.62;4.78;;;;;;;20.99;76.10;99278.25;4448416;32;34023;-84
2022/06/08 06:48:11;;;;;;;6.62;4.65;;;;;;;21.32;74.62;99278.91;4444806;32;33562;-84
2022/06/08 06:50:39;;;;;;;8.07;4.85;;;;;;;21.51;73.61;99278.81;4461920;32;33963;-84
2022/06/08 06:53:07;;;;;;;6.68;5.22;;;;;;;21.89;73.44;99282.91;4454586;32;33876;-84
2022/06/08 06:55:35;;;;;;;8.00;5.57;;;;;;;20.87;76.97;99280.97;4452924;32;32228;-85
2022/06/08 06:58:04;;;;;;;8.77;5.07;;;;;;;20.94;77.05;99266.91;4451297;32;33879;-84
2022/06/08 07:00:32;;;;;;;5.85;4.65;;;;;;;21.55;74.99;99265.59;4462786;32;33958;-84
2022/06/08 07:03:00;;;;;;;8.93;4.40;;;;;;;21.58;75.29;99259.44;4454287;32;34645;-83
2022/06/08 07:05:33;;;;;;;6.10;3.87;;;;;;;22.03;72.60;99253.75;4468760;32;31624;-84
2022/06/08 07:08:02;;;;;;;7.53;4.45;;;;;;;22.40;71.04;99251.59;4464542;32;33811;-84
2022/06/08 07:10:30;;;;;;;7.05;4.25;;;;;;;22.30;73.67;99239.41;4452942;32;33699;-83
2022/06/08 07:12:58;;;;;;;6.00;4.05;;;;;;;22.28;70.86;99241.19;4464289;32;34517;-84
2022/06/08 07:15:27;;;;;;;7.57;3.95;;;;;;;22.72;68.70;99237.13;4466785;32;33203;-83
2022/06/08 07:17:54;;;;;;;6.20;4.05;;;;;;;22.84;69.30;99234.28;4461795;32;34633;-83
2022/06/08 07:20:23;;;;;;;7.18;4.30;;;;;;;23.11;67.49;99240.97;4463078;32;33830;-84
2022/06/08 07:22:53;;;;;;;6.82;4.07;;;;;;;23.25;67.50;99242.53;4463392;32;34685;-83
2022/06/08 07:25:20;;;;;;;9.13;4.62;;;;;;;23.27;65.47;99236.31;4461729;32;34188;-84
2022/06/08 07:27:48;;;;;;;7.80;4.30;;;;;;;23.27;67.15;99236.31;4468146;32;33806;-83
2022/06/08 07:30:15;;;;;;;7.37;4.45;;;;;;;23.28;67.59;99231.94;4463308;32;34689;-84
2022/06/08 07:32:43;;;;;;;6.35;4.62;;;;;;;22.94;68.45;99222.69;4464821;32;34476;-84
2022/06/08 07:35:12;;;;;;;6.35;4.47;;;;;;;23.83;64.86;99231.00;4467887;32;34149;-86
2022/06/08 07:37:39;;;;;;;5.95;4.20;;;;;;;24.23;62.62;99218.78;4457104;32;34679;-84
2022/06/08 07:40:08;;;;;;;5.93;3.97;;;;;;;23.83;65.24;99220.41;4450151;32;32324;-83
2022/06/08 07:42:37;;;;;;;7.15;4.20;;;;;;;24.58;62.31;99219.84;4460750;32;34396;-84
2022/06/08 07:45:07;;;;;;;7.12;4.30;;;;;;;24.37;62.88;99222.00;4447257;32;33380;-84
2022/06/08 07:49:36;;;;;;;6.22;3.60;;;;;;;23.99;64.49;99226.31;4463473;32;33639;-83
2022/06/08 07:50:23;;;;;;;5.45;3.90;;;;;;;24.96;59.79;99218.13;4463157;32;33978;-84
2022/06/08 07:52:50;;;;;;;7.37;5.20;;;;;;;24.10;64.15;99231.37;4433667;32;33939;-83
2022/06/08 07:55:18;;;;;;;8.15;5.37;;;;;;;24.52;59.68;99224.37;4431825;32;33300;-83
2022/06/08 07:57:47;;;;;;;8.52;4.87;;;;;;;23.84;61.15;99230.09;4458067;32;34147;-83
2022/06/08 08:00:16;;;;;;;6.60;5.00;;;;;;;24.72;59.02;99233.66;4456487;32;33868;-83
2022/06/08 08:02:44;;;;;;;10.10;5.37;;;;;;;25.33;57.75;99219.94;4448178;32;34555;-83
2022/06/08 08:05:13;;;;;;;7.90;5.00;;;;;;;25.62;56.77;99228.00;4456785;32;33574;-83
2022/06/08 08:07:41;;;;;;;6.65;5.05;;;;;;;25.90;55.45;99219.31;4458972;32;34025;-83
2022/06/08 08:10:14;;;;;;;7.80;5.93;;;;;;;25.83;54.88;99220.41;4445672;32;33901;-83
2022/06/08 08:12:41;;;;;;;9.48;5.12;;;;;;;24.55;57.96;99225.19;4441342;32;34622;-86
2022/06/08 08:15:09;;;;;;;7.80;4.53;;;;;;;25.73;55.79;99226.84;4440712;32;33437;-83
2022/06/08 08:17:36;;;;;;;9.88;5.22;;;;;;;26.35;54.56;99218.97;4459968;32;34710;-84
2022/06/08 08:20:05;;;;;;;10.75;5.30;;;;;;;26.68;54.08;99226.91;4448894;32;33090;-83
2022/06/08 08:22:32;;;;;;;8.13;4.87;;;;;;;26.15;53.93;99223.97;4466901;32;33947;-88
2022/06/08 08:25:00;;;;;;;6.78;4.53;;;;;;;26.79;52.23;99216.81;4449740;32;33460;-86
2022/06/08 08:27:28;;;;;;;6.57;4.43;;;;;;;27.34;52.59;99226.63;4460546;32;33523;-87
2022/06/08 08:29:55;;;;;;;6.37;4.50;;;;;;;27.15;53.04;99221.88;4465988;32;33913;-85
2022/06/08 08:32:24;;;;;;;8.63;4.97;;;;;;;27.41;51.10;99228.12;4462444;32;33567;-85
2022/06/08 08:34:51;;;;;;;7.12;4.93;;;;;;;27.43;50.96;99226.31;4445742;32;32939;-86
2022/06/08 08:37:19;;;;;;;8.40;4.90;;;;;;;26.86;52.68;99218.34;4463202;32;33880;-85
2022/06/08 08:39:47;;;;;;;9.50;4.90;;;;;;;27.37;51.10;99213.22;4448687;32;32537;-86
2022/06/08 08:42:22;;;;;;;6.18;4.60;;;;;;;27.39;52.17;99211.38;4434093;32;32966;-84
2022/06/08 08:45:25;;;;;;;7.03;4.60;;;;;;;27.73;50.58;99216.41;4425744;32;34242;-84
2022/06/08 08:48:04;;;;;;;7.00;4.15;;;;;;;28.21;48.92;99206.75;4386385;32;34220;-85
2022/06/08 08:50:40;;;;;;;6.12;4.90;;;;;;;27.89;49.18;99213.25;4427947;32;34000;-85
2022/06/08 08:53:23;;;;;;;8.23;4.90;;;;;;;28.06;48.71;99209.97;4436781;32;33435;-86
2022/06/08 08:55:56;;;;;;;7.95;4.72;;;;;;;27.86;48.43;99219.53;4461589;32;33276;-86
2022/06/08 08:58:29;;;;;;;9.13;5.45;;;;;;;27.92;48.08;99219.31;4449589;32;33233;-88
2022/06/08 09:01:17;;;;;;;7.37;5.45;;;;;;;28.50;47.73;99210.13;4442033;32;32430;-87
2022/06/08 09:03:55;;;;;;;8.77;5.80;;;;;;;28.32;48.86;99215.22;4436844;32;34658;-86
2022/06/08 09:06:28;;;;;;;7.07;5.72;;;;;;;28.28;47.52;99208.28;4447930;32;34262;-85
2022/06/08 09:09:03;;;;;;;8.10;5.70;;;;;;;28.90;47.99;99204.12;4468054;32;34164;-87
2022/06/08 09:11:37;;;;;;;8.55;5.68;;;;;;;28.72;48.66;99211.03;4433976;32;32489;-87
2022/06/08 09:14:24;;;;;;;8.68;5.85;;;;;;;28.76;48.00;99212.69;4448886;32;33879;-86
2022/06/08 09:17:10;;;;;;;8.75;5.62;;;;;;;29.10;47.02;99208.66;4447276;32;33357;-86
2022/06/08 09:19:47;;;;;;;7.15;5.03;;;;;;;29.13;45.84;99205.91;4450322;32;34061;-88
2022/06/08 09:22:22;;;;;;;7.05;5.68;;;;;;;28.80;48.00;99205.41;4439812;32;31972;-88
2022/06/08 09:25:00;;;;;;;7.37;5.72;;;;;;;28.46;48.38;99203.19;4468479;32;33614;-85
2022/06/08 09:27:36;;;;;;;7.62;5.75;;;;;;;28.20;48.91;99191.69;4434070;32;33241;-84
2022/06/08 09:30:12;;;;;;;7.82;5.78;;;;;;;28.30;48.91;99182.44;4452912;32;33123;-84
2022/06/08 09:32:56;;;;;;;9.23;5.57;;;;;;;29.14;46.83;99188.97;4463385;32;33888;-85
2022/06/08 09:35:34;;;;;;;9.82;5.25;;;;;;;29.09;46.81;99182.94;4450492;32;34519;-85
2022/06/08 09:38:12;;;;;;;9.00;6.07;;;;;;;28.56;48.10;99172.63;4447835;32;33226;-86
2022/06/08 09:40:47;;;;;;;8.50;5.68;;;;;;;27.99;49.15;99175.59;4442620;32;34004;-85
2022/06/08 09:43:38;;;;;;;7.55;5.22;;;;;;;28.33;48.04;99158.34;4469963;32;34286;-88
2022/06/08 09:46:15;;;;;;;6.87;5.05;;;;;;;28.70;47.25;99158.75;4460848;32;33891;-86
2022/06/08 09:52:17;;;;;;;6.28;5.32;;;;;;;29.18;46.46;99145.22;4454121;32;33654;-86
2022/06/08 09:55:17;;;;;;;6.25;5.18;;;;;;;29.20;45.42;99142.50;4463919;32;34653;-87
2022/06/08 09:58:07;;;;;;;6.55;4.60;;;;;;;29.73;45.30;99130.50;4451140;32;34448;-85
2022/06/08 10:00:44;;;;;;;7.35;5.80;;;;;;;30.34;43.83;99125.00;4463846;32;33144;-85
2022/06/08 10:03:46;;;;;;;6.97;5.40;;;;;;;29.96;43.74;99122.31;4456827;32;33744;-87
2022/06/08 10:06:33;;;;;;;9.63;5.28;;;;;;;30.56;42.19;99116.84;4436863;32;34452;-87
2022/06/08 10:09:06;;;;;;;7.22;4.90;;;;;;;30.40;41.92;99117.66;4464007;32;33314;-86
2022/06/08 10:11:47;;;;;;;8.23;4.60;;;;;;;30.47;42.17;99111.06;4459629;32;32580;-87
2022/06/08 10:14:25;;;;;;;7.97;5.15;;;;;;;30.65;41.07;99104.81;4453062;32;33923;-87
2022/06/08 10:16:58;;;;;;;5.75;4.45;;;;;;;30.68;40.59;99107.34;4453605;32;33571;-87
2022/06/08 10:19:34;;;;;;;7.40;5.18;;;;;;;30.85;41.34;99105.66;4438153;32;34166;-85
2022/06/08 10:22:03;;;;;;;7.45;5.37;;;;;;;31.05;40.13;99105.56;4461220;32;34006;-88
2022/06/08 10:24:58;;;;;;;5.90;4.43;;;;;;;31.23;39.24;99100.22;4435857;32;33895;-88
2022/06/08 10:27:30;;;;;;;;;;;;;;;31.11;40.31;99091.88;4447327;32;34229;-86
2022/06/08 10:30:24;;;;;;;6.70;4.80;;;;;;;31.02;40.22;99091.47;4448538;32;34186;-87
2022/06/08 10:32:59;;;;;;;8.93;5.10;;;;;;;30.45;41.28;99091.59;4441366;32;33014;-87
2022/06/08 10:35:36;;;;;;;6.45;4.82;;;;;;;30.78;40.55;99095.25;4449093;32;34288;-88
2022/06/08 10:38:06;;;;;;;5.70;4.50;;;;;;;31.01;40.43;99090.59;4434533;32;32738;-87
2022/06/08 10:41:04;;;;;;;6.68;4.50;;;;;;;30.99;40.26;99092.50;4451159;32;33839;-87
2022/06/08 10:43:34;;;;;;;7.62;4.60;;;;;;;31.46;38.10;99086.53;4451670;32;34050;-87
2022/06/08 10:46:04;;;;;;;8.52;4.65;;;;;;;31.63;38.76;99074.06;4454476;32;33791;-88
2022/06/08 10:48:49;;;;;;;9.60;4.60;;;;;;;31.62;37.67;99069.66;4447427;32;33988;-86
2022/06/08 10:51:18;;;;;;;8.82;4.43;;;;;;;31.51;37.50;99065.75;4458220;32;35063;-86
2022/06/08 10:56:57;;;;;;;5.68;3.97;;;;;;;30.75;35.74;99074.03;4442148;32;33816;-87
2022/06/08 10:59:28;;;;;;;5.82;3.60;;;;;;;30.60;36.20;99064.09;4443380;32;34400;-87
2022/06/08 11:02:03;;;;;;;4.95;3.87;;;;;;;30.80;36.10;99062.25;4448178;32;33846;-87
2022/06/08 11:04:35;;;;;;;6.80;3.92;;;;;;;31.12;35.23;99058.84;4447461;32;33505;-87
2022/06/08 11:07:09;;;;;;;7.68;3.90;;;;;;;31.57;35.82;99055.66;4466839;32;33753;-87
2022/06/08 11:09:39;;;;;;;5.95;4.05;;;;;;;31.73;33.67;99051.19;4463196;32;33898;-86
2022/06/08 11:12:13;;;;;;;5.30;3.80;;;;;;;31.62;35.64;99053.59;4464841;32;34557;-87
2022/06/08 11:14:43;;;;;;;5.18;3.40;;;;;;;31.48;35.42;99044.47;4462552;32;33471;-88
2022/06/08 11:17:20;;;;;;;7.20;3.62;;;;;;;31.49;34.07;99045.38;4446518;32;32857;-86
2022/06/08 11:19:50;;;;;;;6.30;3.30;;;;;;;31.53;34.40;99045.12;4445479;32;33929;-86
2022/06/08 11:22:29;;;;;;;6.07;3.40;;;;;;;31.50;34.25;99039.91;4461335;32;33896;-86
2022/06/08 11:25:04;;;;;;;7.25;3.42;;;;;;;31.32;34.10;99030.16;4459668;32;34064;-87
2022/06/08 11:27:41;;;;;;;8.77;3.75;;;;;;;30.81;35.09;99034.56;4458844;32;34689;-86
2022/06/08 11:30:22;;;;;;;5.93;3.45;;;;;;;30.19;35.62;99037.53;4444369;32;33636;-87
2022/06/08 11:32:52;;;;;;;6.97;3.90;;;;;;;31.27;34.54;99029.53;4464663;32;33478;-88
2022/06/08 11:35:42;;;;;;;8.65;3.42;;;;;;;30.58;36.29;99031.25;4467112;32;33418;-87
2022/06/08 11:38:35;;;;;;;7.12;3.65;;;;;;;30.57;35.70;99038.38;4466112;32;34617;-87
2022/06/08 11:41:21;;;;;;;5.20;3.42;;;;;;;30.82;34.42;99030.94;4441997;32;34592;-87
2022/06/08 11:43:55;;;;;;;5.70;3.47;;;;;;;30.44;35.15;99029.22;4464064;32;34308;-86
2022/06/08 11:46:38;;;;;;;5.90;3.92;;;;;;;30.22;35.44;99036.56;4461987;32;33457;-87
2022/06/08 11:49:26;;;;;;;6.10;3.47;;;;;;;30.24;34.97;99040.00;4447007;32;33920;-87
2022/06/08 11:51:54;;;;;;;6.62;3.45;;;;;;;30.38;35.76;99049.13;4463382;32;33815;-87
2022/06/08 11:54:25;;;;;;;9.07;3.83;;;;;;;30.18;35.21;99041.16;4467161;32;33883;-87
2022/06/08 11:57:03;;;;;;;5.75;3.15;;;;;;;29.39;37.79;99046.56;4463687;32;34158;-87
2022/06/08 11:59:36;;;;;;;7.62;3.80;;;;;;;29.13;38.98;99045.91;4440376;32;32324;-86
2022/06/08 12:02:19;;;;;;;8.82;4.15;;;;;;;28.05;41.30;99044.06;4445180;32;33244;-86
2022/06/08 12:04:51;;;;;;;6.20;4.12;;;;;;;28.16;40.88;99035.63;4444493;32;34464;-87
2022/06/08 12:07:30;;;;;;;7.40;4.32;;;;;;;27.73;41.86;99048.78;4445231;32;33528;-87
2022/06/08 12:09:57;;;;;;;7.45;4.68;;;;;;;27.97;42.09;99052.34;4468818;32;33721;-86
2022/06/08 12:12:28;;;;;;;8.05;5.28;;;;;;;27.62;45.42;99061.59;4468330;32;33512;-85